sensor_id;sensor_type;location;lat;lon;timestamp;pressure;altitude;pressure_sealevel;temperature;humidity
14253;BME280;7210;51.502;10.722;2022-10-31T00:01:27;100059.97;;;8.04;100.00
14253;BME280;7210;51.502;10.722;2022-10-31T00:03:55;100071.34;;;8.04;100.00
14253;BME280;7210;51.502;10.722;2022-10-31T00:06:23;100065.22;;;7.97;100.00
14253;BME280;7210;51.502;10.722;2022-10-31T00:08:55;100063.81;;;7.95;100.00
14253;BME280;7210;51.502;10.722;2022-10-31T00:11:23;100061.16;;;7.95;100.00
14253;BME280;7210;51.502;10.722;2022-10-31T00:13:50;100064.03;;;8.00;100.00
14253;BME280;7210;51.502;10.722;2022-10-31T00:16:21;100066.44;;;8.01;100.00
14253;BME280;7210;51.502;10.722;2022-10-31T00:18:50;100068.47;;;7.99;100.00
14253;BME280;7210;51.502;10.722;2022-10-31T00:21:23;100068.09;;;8.02;100.00
14253;BME280;7210;51.502;10.722;2022-10-31T00:23:51;100073.75;;;7.99;100.00
14253;BME280;7210;51.502;10.722;2022-10-31T00:26:19;100077.16;;;7.93;100.00
14253;BME280;7210;51.502;10.722;2022-10-31T00:28:47;100079.78;;;7.87;100.00
14253;BME280;7210;51.502;10.722;2022-10-31T00:31:15;100083.41;;;7.79;100.00
14253;BME280;7210;51.502;10.722;2022-10-31T00:33:45;100082.59;;;7.79;100.00
14253;BME280;7210;51.502;10.722;2022-10-31T00:36:15;100089.44;;;7.73;100.00
14253;BME280;7210;51.502;10.722;2022-10-31T00:38:47;100074.19;;;7.62;100.00
14253;BME280;7210;51.502;10.722;2022-10-31T00:41:17;100085.13;;;7.59;100.00
14253;BME280;7210;51.502;10.722;2022-10-31T00:43:45;100092.63;;;7.62;100.00
14253;BME280;7210;51.502;10.722;2022-10-31T00:46:13;100091.63;;;7.63;100.00
14253;BME280;7210;51.502;10.722;2022-10-31T00:48:41;100094.28;;;7.63;100.00
14253;BME280;7210;51.502;10.722;2022-10-31T00:51:10;100094.28;;;7.63;100.00
14253;BME280;7210;51.502;10.722;2022-10-31T00:53:39;100086.97;;;7.65;100.00
14253;BME280;7210;51.502;10.722;2022-10-31T00:56:07;100095.50;;;7.67;100.00
14253;BME280;7210;51.502;10.722;2022-10-31T00:58:34;100097.72;;;7.70;100.00
14253;BME280;7210;51.502;10.722;2022-10-31T01:01:02;100099.97;;;7.73;100.00
14253;BME280;7210;51.502;10.722;2022-10-31T01:03:32;100098.38;;;7.79;100.00
14253;BME280;7210;51.502;10.722;2022-10-31T01:06:03;100093.72;;;7.81;100.00
14253;BME280;7210;51.502;10.722;2022-10-31T01:08:34;100100.81;;;7.80;100.00
14253;BME280;7210;51.502;10.722;2022-10-31T01:11:07;100103.22;;;7.82;100.00
14253;BME280;7210;51.502;10.722;2022-10-31T01:13:35;100115.59;;;7.81;100.00
14253;BME280;7210;51.502;10.722;2022-10-31T01:16:06;100108.50;;;7.82;100.00
14253;BME280;7210;51.502;10.722;2022-10-31T01:18:34;100115.00;;;7.79;100.00
14253;BME280;7210;51.502;10.722;2022-10-31T01:21:05;100109.69;;;7.73;100.00
14253;BME280;7210;51.502;10.722;2022-10-31T01:23:35;100108.25;;;7.70;100.00
14253;BME280;7210;51.502;10.722;2022-10-31T01:26:08;100115.31;;;7.63;100.00
14253;BME280;7210;51.502;10.722;2022-10-31T01:28:38;100112.44;;;7.58;100.00
14253;BME280;7210;51.502;10.722;2022-10-31T01:31:08;100111.63;;;7.58;100.00
14253;BME280;7210;51.502;10.722;2022-10-31T01:33:37;100109.22;;;7.56;100.00
14253;BME280;7210;51.502;10.722;2022-10-31T01:36:15;100103.94;;;7.56;100.00
14253;BME280;7210;51.502;10.722;2022-10-31T01:38:44;100107.59;;;7.55;100.00
14253;BME280;7210;51.502;10.722;2022-10-31T01:41:14;100109.22;;;7.56;100.00
14253;BME280;7210;51.502;10.722;2022-10-31T01:43:44;100105.16;;;7.60;100.00
14253;BME280;7210;51.502;10.722;2022-10-31T01:46:16;100108.03;;;7.65;100.00
14253;BME280;7210;51.502;10.722;2022-10-31T01:48:45;100106.84;;;7.74;100.00
14253;BME280;7210;51.502;10.722;2022-10-31T01:51:20;100104.84;;;7.76;100.00
14253;BME280;7210;51.502;10.722;2022-10-31T01:53:56;100105.66;;;7.77;100.00
14253;BME280;7210;51.502;10.722;2022-10-31T01:56:25;100109.72;;;7.79;100.00
14253;BME280;7210;51.502;10.722;2022-10-31T01:58:55;100110.34;;;7.81;100.00
14253;BME280;7210;51.502;10.722;2022-10-31T02:01:25;100107.09;;;7.79;100.00
14253;BME280;7210;51.502;10.722;2022-10-31T02:03:54;100115.00;;;7.79;100.00
14253;BME280;7210;51.502;10.722;2022-10-31T02:06:33;100107.28;;;7.78;100.00
14253;BME280;7210;51.502;10.722;2022-10-31T02:09:06;100106.47;;;7.77;100.00
14253;BME280;7210;51.502;10.722;2022-10-31T02:11:35;100106.84;;;7.74;100.00
14253;BME280;7210;51.502;10.722;2022-10-31T02:14:03;100108.88;;;7.72;100.00
14253;BME280;7210;51.502;10.722;2022-10-31T02:16:31;100110.88;;;7.70;100.00
14253;BME280;7210;51.502;10.722;2022-10-31T02:18:59;100111.28;;;7.67;100.00
14253;BME280;7210;51.502;10.722;2022-10-31T02:21:36;100107.22;;;7.65;100.00
14253;BME280;7210;51.502;10.722;2022-10-31T02:24:46;100114.06;;;7.59;100.00
14253;BME280;7210;51.502;10.722;2022-10-31T02:27:35;100113.03;;;7.54;100.00
14253;BME280;7210;51.502;10.722;2022-10-31T02:30:16;100116.03;;;7.51;100.00
14253;BME280;7210;51.502;10.722;2022-10-31T02:33:14;100116.69;;;7.53;100.00
14253;BME280;7210;51.502;10.722;2022-10-31T02:35:57;100115.47;;;7.55;100.00
14253;BME280;7210;51.502;10.722;2022-10-31T02:38:42;100111.19;;;7.54;100.00
14253;BME280;7210;51.502;10.722;2022-10-31T02:41:32;100120.78;;;7.62;100.00
14253;BME280;7210;51.502;10.722;2022-10-31T02:44:13;100122.19;;;7.64;100.00
14253;BME280;7210;51.502;10.722;2022-10-31T02:46:48;100116.72;;;7.66;100.00
14253;BME280;7210;51.502;10.722;2022-10-31T02:49:26;100120.59;;;7.63;100.00
14253;BME280;7210;51.502;10.722;2022-10-31T02:51:55;100112.03;;;7.61;100.00
14253;BME280;7210;51.502;10.722;2022-10-31T02:54:26;100117.31;;;7.61;100.00
14253;BME280;7210;51.502;10.722;2022-10-31T02:57:00;100117.31;;;7.61;100.00
14253;BME280;7210;51.502;10.722;2022-10-31T02:59:33;100116.09;;;7.57;100.00
14253;BME280;7210;51.502;10.722;2022-10-31T03:02:38;100121.13;;;7.52;100.00
14253;BME280;7210;51.502;10.722;2022-10-31T03:09:24;100132.63;;;7.45;100.00
14253;BME280;7210;51.502;10.722;2022-10-31T03:12:04;100141.91;;;7.47;100.00
14253;BME280;7210;51.502;10.722;2022-10-31T03:14:41;100146.56;;;7.45;100.00
14253;BME280;7210;51.502;10.722;2022-10-31T03:20:09;100151.81;;;7.45;100.00
14253;BME280;7210;51.502;10.722;2022-10-31T03:22:40;100172.69;;;7.47;100.00
14253;BME280;7210;51.502;10.722;2022-10-31T03:25:13;100163.34;;;7.44;100.00
14253;BME280;7210;51.502;10.722;2022-10-31T03:27:43;100160.91;;;7.43;100.00
14253;BME280;7210;51.502;10.722;2022-10-31T03:30:17;100159.28;;;7.42;100.00
14253;BME280;7210;51.502;10.722;2022-10-31T03:32:59;100159.28;;;7.42;100.00
14253;BME280;7210;51.502;10.722;2022-10-31T03:35:32;100164.13;;;7.38;100.00
14253;BME280;7210;51.502;10.722;2022-10-31T03:38:04;100163.06;;;7.33;100.00
14253;BME280;7210;51.502;10.722;2022-10-31T03:40:36;100166.47;;;7.27;100.00
14253;BME280;7210;51.502;10.722;2022-10-31T03:43:10;100165.41;;;7.22;100.00
14253;BME280;7210;51.502;10.722;2022-10-31T03:45:45;100170.25;;;7.18;100.00
14253;BME280;7210;51.502;10.722;2022-10-31T03:48:15;100159.06;;;7.10;100.00
14253;BME280;7210;51.502;10.722;2022-10-31T03:50:54;100170.38;;;7.10;100.00
14253;BME280;7210;51.502;10.722;2022-10-31T03:53:32;100168.31;;;7.06;100.00
14253;BME280;7210;51.502;10.722;2022-10-31T03:56:09;100169.34;;;7.05;100.00
14253;BME280;7210;51.502;10.722;2022-10-31T03:58:44;100172.34;;;7.02;100.00
14253;BME280;7210;51.502;10.722;2022-10-31T04:01:18;100163.78;;;6.93;100.00
14253;BME280;7210;51.502;10.722;2022-10-31T04:03:48;100177.75;;;6.94;100.00
14253;BME280;7210;51.502;10.722;2022-10-31T04:06:20;100175.88;;;6.88;100.00
14253;BME280;7210;51.502;10.722;2022-10-31T04:08:52;100174.59;;;6.84;100.00
14253;BME280;7210;51.502;10.722;2022-10-31T04:11:27;100184.09;;;6.85;100.00
14253;BME280;7210;51.502;10.722;2022-10-31T04:14:16;100176.66;;;6.88;100.00
14253;BME280;7210;51.502;10.722;2022-10-31T04:16:45;100171.66;;;6.93;100.00
14253;BME280;7210;51.502;10.722;2022-10-31T04:19:14;100170.66;;;6.94;100.00
14253;BME280;7210;51.502;10.722;2022-10-31T04:21:42;100167.84;;;6.96;100.00
14253;BME280;7210;51.502;10.722;2022-10-31T04:24:10;100161.00;;;7.01;100.00
14253;BME280;7210;51.502;10.722;2022-10-31T04:26:39;100163.91;;;7.06;100.00
14253;BME280;7210;51.502;10.722;2022-10-31T04:29:07;100147.75;;;7.16;100.00
14253;BME280;7210;51.502;10.722;2022-10-31T04:31:35;100151.66;;;7.20;100.00
14253;BME280;7210;51.502;10.722;2022-10-31T04:34:02;100160.16;;;7.22;100.00
14253;BME280;7210;51.502;10.722;2022-10-31T04:36:29;100171.06;;;7.19;100.00
14253;BME280;7210;51.502;10.722;2022-10-31T04:38:57;100171.66;;;7.14;100.00
14253;BME280;7210;51.502;10.722;2022-10-31T04:41:36;100167.94;;;7.09;100.00
14253;BME280;7210;51.502;10.722;2022-10-31T04:44:15;100161.06;;;7.08;100.00
14253;BME280;7210;51.502;10.722;2022-10-31T04:46:45;100163.38;;;7.17;100.00
14253;BME280;7210;51.502;10.722;2022-10-31T04:49:14;100162.53;;;7.17;100.00
14253;BME280;7210;51.502;10.722;2022-10-31T04:51:42;100171.56;;;7.08;100.00
14253;BME280;7210;51.502;10.722;2022-10-31T04:54:09;100173.09;;;6.96;100.00
14253;BME280;7210;51.502;10.722;2022-10-31T04:56:55;100177.84;;;6.86;100.00
14253;BME280;7210;51.502;10.722;2022-10-31T04:59:25;100173.38;;;6.80;100.00
14253;BME280;7210;51.502;10.722;2022-10-31T05:01:53;100166.09;;;6.82;100.00
14253;BME280;7210;51.502;10.722;2022-10-31T05:04:27;100166.72;;;6.84;100.00
14253;BME280;7210;51.502;10.722;2022-10-31T05:06:55;100174.25;;;6.87;100.00
14253;BME280;7210;51.502;10.722;2022-10-31T05:09:22;100171.47;;;6.95;100.00
14253;BME280;7210;51.502;10.722;2022-10-31T05:11:50;100174.53;;;6.98;100.00
14253;BME280;7210;51.502;10.722;2022-10-31T05:14:38;100155.63;;;6.88;100.00
14253;BME280;7210;51.502;10.722;2022-10-31T05:17:41;100178.28;;;6.89;100.00
14253;BME280;7210;51.502;10.722;2022-10-31T05:20:30;100169.34;;;6.84;100.00
14253;BME280;7210;51.502;10.722;2022-10-31T05:23:15;100172.59;;;6.86;100.00
14253;BME280;7210;51.502;10.722;2022-10-31T05:25:42;100177.00;;;6.79;100.00
14253;BME280;7210;51.502;10.722;2022-10-31T05:28:10;100175.47;;;6.70;100.00
14253;BME280;7210;51.502;10.722;2022-10-31T05:30:41;100177.84;;;6.65;100.00
14253;BME280;7210;51.502;10.722;2022-10-31T05:33:13;100175.69;;;6.68;100.00
14253;BME280;7210;51.502;10.722;2022-10-31T05:35:59;100183.34;;;6.70;100.00
14253;BME280;7210;51.502;10.722;2022-10-31T05:38:27;100179.47;;;6.66;100.00
14253;BME280;7210;51.502;10.722;2022-10-31T05:41:00;100175.97;;;6.59;100.00
14253;BME280;7210;51.502;10.722;2022-10-31T05:43:30;100181.63;;;6.56;100.00
14253;BME280;7210;51.502;10.722;2022-10-31T05:46:03;100173.53;;;6.57;100.00
14253;BME280;7210;51.502;10.722;2022-10-31T05:48:50;100177.25;;;6.63;100.00
14253;BME280;7210;51.502;10.722;2022-10-31T05:51:50;100174.97;;;6.60;100.00
14253;BME280;7210;51.502;10.722;2022-10-31T05:54:19;100182.50;;;6.63;100.00
14253;BME280;7210;51.502;10.722;2022-10-31T05:56:46;100182.50;;;6.63;100.00
14253;BME280;7210;51.502;10.722;2022-10-31T05:59:13;100185.91;;;6.63;100.00
14253;BME280;7210;51.502;10.722;2022-10-31T06:01:42;100190.38;;;6.63;100.00
14253;BME280;7210;51.502;10.722;2022-10-31T06:04:25;100189.94;;;6.59;100.00
14253;BME280;7210;51.502;10.722;2022-10-31T06:06:52;100183.84;;;6.59;100.00
14253;BME280;7210;51.502;10.722;2022-10-31T06:09:20;100183.59;;;6.54;100.00
14253;BME280;7210;51.502;10.722;2022-10-31T06:11:47;100180.78;;;6.55;100.00
14253;BME280;7210;51.502;10.722;2022-10-31T06:14:41;100185.22;;;6.55;100.00
14253;BME280;7210;51.502;10.722;2022-10-31T06:17:09;100192.75;;;6.58;100.00
14253;BME280;7210;51.502;10.722;2022-10-31T06:19:49;100190.13;;;6.58;100.00
14253;BME280;7210;51.502;10.722;2022-10-31T06:22:20;100191.91;;;6.57;100.00
14253;BME280;7210;51.502;10.722;2022-10-31T06:24:47;100201.63;;;6.57;100.00
14253;BME280;7210;51.502;10.722;2022-10-31T06:27:41;100193.34;;;6.60;100.00
14253;BME280;7210;51.502;10.722;2022-10-31T06:30:14;100200.22;;;6.61;100.00
14253;BME280;7210;51.502;10.722;2022-10-31T06:32:43;100201.06;;;6.61;100.00
14253;BME280;7210;51.502;10.722;2022-10-31T06:35:11;100205.13;;;6.64;100.00
14253;BME280;7210;51.502;10.722;2022-10-31T06:37:40;100205.13;;;6.64;100.00
14253;BME280;7210;51.502;10.722;2022-10-31T06:40:22;100210.28;;;6.72;100.00
14253;BME280;7210;51.502;10.722;2022-10-31T06:43:08;100212.56;;;6.81;100.00
14253;BME280;7210;51.502;10.722;2022-10-31T06:45:37;100218.25;;;6.85;100.00
14253;BME280;7210;51.502;10.722;2022-10-31T06:48:28;100217.78;;;6.96;100.00
14253;BME280;7210;51.502;10.722;2022-10-31T06:51:18;100225.38;;;7.05;100.00
14253;BME280;7210;51.502;10.722;2022-10-31T06:53:46;100231.41;;;7.06;100.00
14253;BME280;7210;51.502;10.722;2022-10-31T06:56:16;100228.53;;;7.01;100.00
14253;BME280;7210;51.502;10.722;2022-10-31T06:58:50;100229.41;;;7.08;100.00
14253;BME280;7210;51.502;10.722;2022-10-31T07:01:28;100235.09;;;7.11;100.00
14253;BME280;7210;51.502;10.722;2022-10-31T07:03:58;100243.19;;;7.10;100.00
14253;BME280;7210;51.502;10.722;2022-10-31T07:06:25;100248.69;;;7.15;100.00
14253;BME280;7210;51.502;10.722;2022-10-31T07:08:53;100248.13;;;7.19;100.00
14253;BME280;7210;51.502;10.722;2022-10-31T07:11:22;100259.72;;;7.25;100.00
14253;BME280;7210;51.502;10.722;2022-10-31T07:13:50;100259.59;;;7.32;100.00
14253;BME280;7210;51.502;10.722;2022-10-31T07:16:17;100261.69;;;7.43;100.00
14253;BME280;7210;51.502;10.722;2022-10-31T07:18:45;100264.38;;;7.50;100.00
14253;BME280;7210;51.502;10.722;2022-10-31T07:21:14;100263.19;;;7.52;100.00
14253;BME280;7210;51.502;10.722;2022-10-31T07:23:42;100277.19;;;7.59;100.00
14253;BME280;7210;51.502;10.722;2022-10-31T07:26:41;100267.94;;;7.63;100.00
14253;BME280;7210;51.502;10.722;2022-10-31T07:29:09;100267.16;;;7.69;100.00
14253;BME280;7210;51.502;10.722;2022-10-31T07:31:37;100272.28;;;7.77;100.00
14253;BME280;7210;51.502;10.722;2022-10-31T07:34:13;100267.50;;;7.87;100.00
14253;BME280;7210;51.502;10.722;2022-10-31T07:37:12;100274.66;;;8.00;100.00
14253;BME280;7210;51.502;10.722;2022-10-31T07:39:40;100277.56;;;8.11;100.00
14253;BME280;7210;51.502;10.722;2022-10-31T07:42:07;100278.88;;;8.22;100.00
14253;BME280;7210;51.502;10.722;2022-10-31T07:44:35;100271.44;;;8.32;100.00
14253;BME280;7210;51.502;10.722;2022-10-31T07:47:23;100272.28;;;8.45;100.00
14253;BME280;7210;51.502;10.722;2022-10-31T07:50:13;100271.75;;;8.56;100.00
14253;BME280;7210;51.502;10.722;2022-10-31T07:53:04;100257.56;;;8.57;100.00
14253;BME280;7210;51.502;10.722;2022-10-31T07:55:53;100272.25;;;8.79;100.00
14253;BME280;7210;51.502;10.722;2022-10-31T07:58:41;100275.72;;;8.93;100.00
14253;BME280;7210;51.502;10.722;2022-10-31T08:01:09;100267.81;;;9.06;100.00
14253;BME280;7210;51.502;10.722;2022-10-31T08:03:47;100267.06;;;9.18;100.00
14253;BME280;7210;51.502;10.722;2022-10-31T08:06:41;100265.44;;;9.30;100.00
14253;BME280;7210;51.502;10.722;2022-10-31T08:09:32;100265.22;;;9.45;100.00
14253;BME280;7210;51.502;10.722;2022-10-31T08:12:05;100258.09;;;9.84;100.00
14253;BME280;7210;51.502;10.722;2022-10-31T08:14:41;100259.09;;;9.96;100.00
14253;BME280;7210;51.502;10.722;2022-10-31T08:17:11;100264.56;;;10.01;100.00
14253;BME280;7210;51.502;10.722;2022-10-31T08:20:06;100267.84;;;10.03;100.00
14253;BME280;7210;51.502;10.722;2022-10-31T08:22:40;100274.94;;;10.09;100.00
14253;BME280;7210;51.502;10.722;2022-10-31T08:25:10;100273.47;;;10.26;100.00
14253;BME280;7210;51.502;10.722;2022-10-31T08:27:38;100274.47;;;10.38;100.00
14253;BME280;7210;51.502;10.722;2022-10-31T08:30:10;100275.06;;;10.47;100.00
14253;BME280;7210;51.502;10.722;2022-10-31T08:32:42;100271.34;;;10.54;100.00
14253;BME280;7210;51.502;10.722;2022-10-31T08:35:35;100271.72;;;10.64;100.00
14253;BME280;7210;51.502;10.722;2022-10-31T08:38:37;100258.03;;;10.74;100.00
14253;BME280;7210;51.502;10.722;2022-10-31T08:41:09;100244.38;;;10.77;100.00
14253;BME280;7210;51.502;10.722;2022-10-31T08:43:47;100248.38;;;10.92;100.00
14253;BME280;7210;51.502;10.722;2022-10-31T08:46:16;100254.00;;;11.02;100.00
14253;BME280;7210;51.502;10.722;2022-10-31T08:48:48;100248.47;;;11.10;100.00
14253;BME280;7210;51.502;10.722;2022-10-31T08:51:17;100245.28;;;11.26;100.00
14253;BME280;7210;51.502;10.722;2022-10-31T08:53:53;100238.28;;;11.38;100.00
14253;BME280;7210;51.502;10.722;2022-10-31T08:56:37;100237.44;;;11.44;100.00
14253;BME280;7210;51.502;10.722;2022-10-31T08:59:14;100239.19;;;11.50;100.00
14253;BME280;7210;51.502;10.722;2022-10-31T09:02:02;100231.63;;;11.60;100.00
14253;BME280;7210;51.502;10.722;2022-10-31T09:04:29;100227.84;;;11.74;100.00
14253;BME280;7210;51.502;10.722;2022-10-31T09:06:57;100226.56;;;11.76;100.00
14253;BME280;7210;51.502;10.722;2022-10-31T09:09:25;100212.81;;;11.68;100.00
14253;BME280;7210;51.502;10.722;2022-10-31T09:11:54;100219.97;;;11.85;100.00
14253;BME280;7210;51.502;10.722;2022-10-31T09:14:40;100210.47;;;11.96;100.00
14253;BME280;7210;51.502;10.722;2022-10-31T09:17:47;100214.38;;;12.29;100.00
14253;BME280;7210;51.502;10.722;2022-10-31T09:20:53;100222.06;;;12.67;100.00
14253;BME280;7210;51.502;10.722;2022-10-31T09:23:23;100212.69;;;12.94;100.00
14253;BME280;7210;51.502;10.722;2022-10-31T09:25:52;100208.25;;;13.06;100.00
14253;BME280;7210;51.502;10.722;2022-10-31T09:28:37;100201.13;;;13.18;100.00
14253;BME280;7210;51.502;10.722;2022-10-31T09:31:12;100190.97;;;13.15;100.00
14253;BME280;7210;51.502;10.722;2022-10-31T09:33:46;100183.69;;;13.10;100.00
14253;BME280;7210;51.502;10.722;2022-10-31T09:36:33;100172.56;;;13.02;100.00
14253;BME280;7210;51.502;10.722;2022-10-31T09:39:17;100176.97;;;13.08;100.00
14253;BME280;7210;51.502;10.722;2022-10-31T09:42:14;100173.16;;;13.15;100.00
14253;BME280;7210;51.502;10.722;2022-10-31T09:45:12;100168.78;;;13.21;100.00
14253;BME280;7210;51.502;10.722;2022-10-31T09:48:06;100166.38;;;13.31;100.00
14253;BME280;7210;51.502;10.722;2022-10-31T09:51:13;100157.38;;;13.43;100.00
14253;BME280;7210;51.502;10.722;2022-10-31T09:53:59;100147.31;;;13.57;100.00
14253;BME280;7210;51.502;10.722;2022-10-31T09:56:32;100135.97;;;13.73;100.00
14253;BME280;7210;51.502;10.722;2022-10-31T09:59:04;100134.69;;;13.87;100.00
14253;BME280;7210;51.502;10.722;2022-10-31T10:01:43;100127.50;;;13.99;100.00
14253;BME280;7210;51.502;10.722;2022-10-31T10:04:34;100122.16;;;14.10;100.00
14253;BME280;7210;51.502;10.722;2022-10-31T10:07:20;100128.03;;;14.24;100.00
14253;BME280;7210;51.502;10.722;2022-10-31T10:10:34;100121.47;;;14.43;100.00
14253;BME280;7210;51.502;10.722;2022-10-31T10:13:55;100122.28;;;14.60;100.00
14253;BME280;7210;51.502;10.722;2022-10-31T10:16:44;100118.44;;;14.67;100.00
14253;BME280;7210;51.502;10.722;2022-10-31T10:19:30;100112.91;;;14.69;100.00
14253;BME280;7210;51.502;10.722;2022-10-31T10:22:12;100120.69;;;14.59;100.00
14253;BME280;7210;51.502;10.722;2022-10-31T10:25:19;100121.19;;;14.56;100.00
14253;BME280;7210;51.502;10.722;2022-10-31T10:28:08;100111.34;;;14.73;100.00
14253;BME280;7210;51.502;10.722;2022-10-31T10:30:41;100099.44;;;14.92;100.00
14253;BME280;7210;51.502;10.722;2022-10-31T10:33:15;100103.78;;;14.98;100.00
14253;BME280;7210;51.502;10.722;2022-10-31T10:35:50;100099.09;;;15.05;100.00
14253;BME280;7210;51.502;10.722;2022-10-31T10:38:27;100092.81;;;15.11;100.00
14253;BME280;7210;51.502;10.722;2022-10-31T10:40:59;100099.16;;;15.26;99.34
14253;BME280;7210;51.502;10.722;2022-10-31T10:43:33;100096.81;;;15.29;98.88
14253;BME280;7210;51.502;10.722;2022-10-31T10:46:18;100087.78;;;15.30;99.63
14253;BME280;7210;51.502;10.722;2022-10-31T10:49:17;100084.88;;;15.32;97.55
14253;BME280;7210;51.502;10.722;2022-10-31T10:51:56;100087.78;;;15.30;97.53
14253;BME280;7210;51.502;10.722;2022-10-31T10:54:42;100076.47;;;15.40;98.80
14253;BME280;7210;51.502;10.722;2022-10-31T10:57:30;100078.16;;;15.46;96.70
14253;BME280;7210;51.502;10.722;2022-10-31T11:00:02;100038.19;;;15.29;95.74
14253;BME280;7210;51.502;10.722;2022-10-31T11:02:35;100072.09;;;15.50;96.72
14253;BME280;7210;51.502;10.722;2022-10-31T11:05:15;100056.72;;;15.57;98.20
14253;BME280;7210;51.502;10.722;2022-10-31T11:07:45;100065.91;;;15.66;97.05
14253;BME280;7210;51.502;10.722;2022-10-31T11:10:15;100061.75;;;15.75;96.85
14253;BME280;7210;51.502;10.722;2022-10-31T11:12:45;100058.63;;;15.83;95.88
14253;BME280;7210;51.502;10.722;2022-10-31T11:15:26;100039.97;;;15.83;96.13
14253;BME280;7210;51.502;10.722;2022-10-31T11:17:56;100051.38;;;16.00;96.31
14253;BME280;7210;51.502;10.722;2022-10-31T11:20:30;100041.88;;;16.09;95.93
14253;BME280;7210;51.502;10.722;2022-10-31T11:23:10;100043.63;;;16.25;95.70
14253;BME280;7210;51.502;10.722;2022-10-31T11:25:53;100035.97;;;16.34;95.29
14253;BME280;7210;51.502;10.722;2022-10-31T11:28:21;100030.78;;;16.49;94.79
14253;BME280;7210;51.502;10.722;2022-10-31T11:30:51;100034.66;;;16.63;94.50
14253;BME280;7210;51.502;10.722;2022-10-31T11:33:26;100020.06;;;16.75;94.22
14253;BME280;7210;51.502;10.722;2022-10-31T11:35:57;100027.88;;;16.82;92.86
14253;BME280;7210;51.502;10.722;2022-10-31T11:38:32;100027.13;;;16.91;92.25
14253;BME280;7210;51.502;10.722;2022-10-31T11:41:12;100006.34;;;16.98;92.12
14253;BME280;7210;51.502;10.722;2022-10-31T11:43:49;100023.47;;;17.02;92.45
14253;BME280;7210;51.502;10.722;2022-10-31T11:46:33;100017.06;;;17.08;89.33
14253;BME280;7210;51.502;10.722;2022-10-31T11:49:02;100013.94;;;17.16;91.08
14253;BME280;7210;51.502;10.722;2022-10-31T11:51:33;100011.81;;;17.18;90.78
14253;BME280;7210;51.502;10.722;2022-10-31T11:54:05;100005.69;;;17.23;90.56
14253;BME280;7210;51.502;10.722;2022-10-31T11:56:41;100002.75;;;17.29;90.02
14253;BME280;7210;51.502;10.722;2022-10-31T11:59:22;99994.75;;;17.24;90.01
14253;BME280;7210;51.502;10.722;2022-10-31T12:01:52;100002.25;;;17.32;89.93
14253;BME280;7210;51.502;10.722;2022-10-31T12:04:34;99997.22;;;17.36;89.47
14253;BME280;7210;51.502;10.722;2022-10-31T12:07:05;99986.22;;;17.32;89.47
14253;BME280;7210;51.502;10.722;2022-10-31T12:09:35;99987.63;;;17.40;89.53
14253;BME280;7210;51.502;10.722;2022-10-31T12:12:36;99987.38;;;17.46;89.95
14253;BME280;7210;51.502;10.722;2022-10-31T12:15:30;99979.41;;;17.61;89.39
14253;BME280;7210;51.502;10.722;2022-10-31T12:18:31;99978.38;;;17.72;88.66
14253;BME280;7210;51.502;10.722;2022-10-31T12:21:21;99972.78;;;17.84;88.26
14253;BME280;7210;51.502;10.722;2022-10-31T12:24:08;99965.56;;;17.89;87.82
14253;BME280;7210;51.502;10.722;2022-10-31T12:26:51;99967.19;;;18.00;88.00
14253;BME280;7210;51.502;10.722;2022-10-31T12:29:36;99965.34;;;18.06;87.24
14253;BME280;7210;51.502;10.722;2022-10-31T12:32:29;99957.03;;;18.12;86.90
14253;BME280;7210;51.502;10.722;2022-10-31T12:35:37;99957.56;;;18.14;86.82
14253;BME280;7210;51.502;10.722;2022-10-31T12:38:54;99956.78;;;18.14;86.37
14253;BME280;7210;51.502;10.722;2022-10-31T12:41:45;99952.25;;;18.19;82.07
14253;BME280;7210;51.502;10.722;2022-10-31T12:44:41;99940.47;;;18.10;83.50
14253;BME280;7210;51.502;10.722;2022-10-31T12:47:37;99933.22;;;18.06;84.00
14253;BME280;7210;51.502;10.722;2022-10-31T12:50:27;99932.41;;;18.15;83.48
14253;BME280;7210;51.502;10.722;2022-10-31T12:53:07;99928.66;;;18.16;82.80
14253;BME280;7210;51.502;10.722;2022-10-31T12:55:54;99918.78;;;18.17;81.98
14253;BME280;7210;51.502;10.722;2022-10-31T12:58:31;99922.25;;;18.22;81.77
14253;BME280;7210;51.502;10.722;2022-10-31T13:01:09;99919.06;;;18.25;81.56
14253;BME280;7210;51.502;10.722;2022-10-31T13:03:48;99913.13;;;18.23;82.77
14253;BME280;7210;51.502;10.722;2022-10-31T13:06:30;99896.81;;;18.25;80.80
14253;BME280;7210;51.502;10.722;2022-10-31T13:09:06;99907.78;;;18.23;81.07
14253;BME280;7210;51.502;10.722;2022-10-31T13:11:43;99914.22;;;18.17;83.18
14253;BME280;7210;51.502;10.722;2022-10-31T13:14:27;99909.94;;;18.11;79.86
14253;BME280;7210;51.502;10.722;2022-10-31T13:17:02;99903.53;;;18.02;81.25
14253;BME280;7210;51.502;10.722;2022-10-31T13:19:41;99886.38;;;17.93;81.79
14253;BME280;7210;51.502;10.722;2022-10-31T13:22:17;99895.47;;;17.92;81.53
14253;BME280;7210;51.502;10.722;2022-10-31T13:24:56;99896.00;;;17.89;83.44
14253;BME280;7210;51.502;10.722;2022-10-31T13:27:36;99894.91;;;17.85;84.00
14253;BME280;7210;51.502;10.722;2022-10-31T13:30:16;99892.78;;;17.77;84.76
14253;BME280;7210;51.502;10.722;2022-10-31T13:32:49;99898.66;;;17.74;85.59
14253;BME280;7210;51.502;10.722;2022-10-31T13:35:27;99900.53;;;17.69;85.94
14253;BME280;7210;51.502;10.722;2022-10-31T13:38:21;99895.16;;;17.64;83.99
14253;BME280;7210;51.502;10.722;2022-10-31T13:40:57;99882.59;;;17.59;85.63
14253;BME280;7210;51.502;10.722;2022-10-31T13:43:41;99885.25;;;17.59;86.04
14253;BME280;7210;51.502;10.722;2022-10-31T13:46:26;99893.28;;;17.49;86.57
14253;BME280;7210;51.502;10.722;2022-10-31T13:49:01;99894.84;;;17.45;86.73